createdAt,value
2024-02-08T00:00:49.258Z,98066.28
2024-02-08T00:03:16.729Z,98057.75
2024-02-08T00:05:44.088Z,98055.97
2024-02-08T00:08:13.419Z,98049.06
2024-02-08T00:10:41.216Z,98044.78
2024-02-08T00:13:08.462Z,98052.53
2024-02-08T00:15:36.240Z,98040.50
2024-02-08T00:18:04.461Z,98049.25
2024-02-08T00:20:33.042Z,98039.69
2024-02-08T00:23:00.552Z,98045.72
2024-02-08T00:25:28.035Z,98044.88
2024-02-08T00:27:55.249Z,98047.44
2024-02-08T00:30:22.465Z,98050.03
2024-02-08T00:32:50.263Z,98038.84
2024-02-08T00:35:21.473Z,98029.41
2024-02-08T00:37:50.152Z,98029.34
2024-02-08T00:40:18.406Z,98035.34
2024-02-08T00:42:48.754Z,98046.62
2024-02-08T00:45:17.971Z,98043.13
2024-02-08T00:47:45.443Z,98043.97
2024-02-08T00:50:12.971Z,98031.94
2024-02-08T00:52:40.325Z,98044.00
2024-02-08T00:55:07.989Z,98036.19
2024-02-08T00:57:35.161Z,98032.78
2024-02-08T01:00:02.932Z,98029.31
2024-02-08T01:02:32.382Z,98030.19
2024-02-08T01:05:00.332Z,98037.97
2024-02-08T01:07:27.836Z,98046.59
2024-02-08T01:09:55.311Z,98047.50
2024-02-08T01:12:24.634Z,98045.75
2024-02-08T01:14:51.842Z,98034.47
2024-02-08T01:17:19.269Z,98032.75
2024-02-08T01:19:48.239Z,98036.28
2024-02-08T01:22:20.862Z,98023.31
2024-02-08T01:24:49.510Z,98027.69
2024-02-08T01:27:21.906Z,98027.72
2024-02-08T01:29:51.310Z,98028.63
2024-02-08T01:32:19.272Z,98022.53
2024-02-08T01:34:47.100Z,98019.09
2024-02-08T01:37:16.061Z,98013.13
2024-02-08T01:39:44.886Z,98015.66
2024-02-08T01:42:13.150Z,98013.91
2024-02-08T01:44:51.764Z,98006.09
2024-02-08T01:47:19.331Z,98006.03
2024-02-08T01:49:48.589Z,98002.72
2024-02-08T01:52:20.584Z,98003.53
2024-02-08T01:54:50.140Z,98000.09
2024-02-08T01:57:17.341Z,97988.84
2024-02-08T01:59:48.945Z,97986.25
2024-02-08T02:02:16.300Z,97980.16
2024-02-08T02:04:43.826Z,97993.12
2024-02-08T02:07:11.380Z,97988.87
2024-02-08T02:09:40.284Z,97981.91
2024-02-08T02:12:10.776Z,97987.06
2024-02-08T02:14:39.967Z,97985.34
2024-02-08T02:17:14.521Z,97976.69
2024-02-08T02:19:42.438Z,97981.00
2024-02-08T02:22:10.392Z,97983.66
2024-02-08T02:24:37.904Z,97983.63
2024-02-08T02:27:06.026Z,97983.63
2024-02-08T02:29:34.009Z,97984.50
2024-02-08T02:32:01.350Z,97979.28
2024-02-08T02:34:32.100Z,97981.00
2024-02-08T02:37:03.611Z,97990.47
2024-02-08T02:39:32.564Z,97987.88
2024-02-08T02:42:00.374Z,97996.53
2024-02-08T02:44:30.451Z,97990.47
2024-02-08T02:46:58.100Z,97987.91
2024-02-08T02:49:27.915Z,97988.75
2024-02-08T02:51:55.188Z,97987.03
2024-02-08T02:54:22.870Z,97987.00
2024-02-08T02:56:51.828Z,97997.37
2024-02-08T02:59:19.345Z,97995.66
2024-02-08T03:01:51.019Z,97997.37
2024-02-08T03:04:19.332Z,97989.69
2024-02-08T03:09:32.890Z,98007.72
2024-02-08T03:12:00.373Z,98000.88
2024-02-08T03:14:28.097Z,98002.59
2024-02-08T03:17:02.584Z,98004.34
2024-02-08T03:19:30.616Z,98001.72
2024-02-08T03:21:58.347Z,98009.53
2024-02-08T03:24:26.478Z,98007.81
2024-02-08T03:26:56.926Z,98010.38
2024-02-08T03:29:24.499Z,98016.56
2024-02-08T03:31:53.890Z,98016.59
2024-02-08T03:34:24.508Z,98014.00
2024-02-08T03:36:52.284Z,98013.13
2024-02-08T03:39:26.842Z,98015.69
2024-02-08T03:42:08.067Z,98012.31
2024-02-08T03:44:35.749Z,98007.97
2024-02-08T03:47:09.764Z,98018.28
2024-02-08T03:49:38.105Z,98011.34
2024-02-08T03:52:05.913Z,98017.41
2024-02-08T03:54:34.411Z,98010.50
2024-02-08T03:57:06.534Z,98010.50
2024-02-08T03:59:42.364Z,98008.75
2024-02-08T04:02:13.272Z,98004.34
2024-02-08T04:04:59.793Z,98014.81
2024-02-08T04:07:45.788Z,98014.75
2024-02-08T04:10:20.952Z,98008.78
2024-02-08T04:13:07.158Z,98007.84
2024-02-08T04:15:54.193Z,98015.69
2024-02-08T04:18:41.097Z,98002.63
2024-02-08T04:21:26.961Z,97997.53
2024-02-08T04:24:12.866Z,98001.75
2024-02-08T04:26:58.855Z,97993.12
2024-02-08T04:29:45.905Z,97992.22
2024-02-08T04:32:32.165Z,97990.53
2024-02-08T04:35:18.233Z,97983.63
2024-02-08T04:38:04.344Z,97992.28
2024-02-08T04:40:50.390Z,97988.06
2024-02-08T04:43:36.527Z,97987.97
2024-02-08T04:46:23.091Z,97984.53
2024-02-08T04:49:09.154Z,97997.47
2024-02-08T04:51:55.014Z,97991.44
2024-02-08T04:54:22.434Z,97995.75
2024-02-08T04:56:49.820Z,97997.37
2024-02-08T04:59:23.465Z,98001.78
2024-02-08T05:01:54.404Z,98013.00
2024-02-08T05:04:24.906Z,98019.00
2024-02-08T05:06:52.596Z,98025.00
2024-02-08T05:09:22.783Z,98029.41
2024-02-08T05:11:53.459Z,98024.22
2024-02-08T05:14:23.810Z,98024.22
2024-02-08T05:16:56.214Z,98030.19
2024-02-08T05:19:28.305Z,98024.19
2024-02-08T05:21:59.736Z,98032.84
2024-02-08T05:24:32.068Z,98028.59
2024-02-08T05:27:00.361Z,98031.16
2024-02-08T05:29:29.813Z,98030.28
2024-02-08T05:31:57.155Z,98021.69
2024-02-08T05:34:27.248Z,98016.50
2024-02-08T05:36:57.111Z,98022.53
2024-02-08T05:39:29.498Z,98027.66
2024-02-08T05:41:58.750Z,98025.13
2024-02-08T05:44:32.108Z,98031.12
2024-02-08T05:47:11.935Z,98020.84
2024-02-08T05:49:53.524Z,98026.03
2024-02-08T05:52:21.482Z,98019.94
2024-02-08T05:54:53.658Z,98020.00
2024-02-08T05:57:22.913Z,98028.59
2024-02-08T05:59:54.124Z,98030.31
2024-02-08T06:02:25.433Z,98031.12
2024-02-08T06:05:02.419Z,98034.59
2024-02-08T06:07:31.271Z,98039.81
2024-02-08T06:10:15.657Z,98034.59
2024-02-08T06:12:53.465Z,98037.16
2024-02-08T06:15:34.260Z,98033.72
2024-02-08T06:18:08.337Z,98034.53
2024-02-08T06:20:42.110Z,98030.28
2024-02-08T06:23:24.162Z,98034.59
2024-02-08T06:26:12.264Z,98034.59
2024-02-08T06:28:42.555Z,98038.06
2024-02-08T06:31:15.970Z,98047.50
2024-02-08T06:34:05.138Z,98040.66
2024-02-08T06:36:35.573Z,98054.50
2024-02-08T06:39:23.978Z,98050.94
2024-02-08T06:41:56.654Z,98052.66
2024-02-08T06:44:39.153Z,98075.09
2024-02-08T06:47:25.372Z,98069.06
2024-02-08T06:50:13.531Z,98068.25
2024-02-08T06:52:59.356Z,98075.97
2024-02-08T06:55:45.358Z,98082.00
2024-02-08T06:58:31.507Z,98076.78
2024-02-08T07:01:17.584Z,98079.38
2024-02-08T07:04:04.135Z,98078.53
2024-02-08T07:06:50.205Z,98074.25
2024-02-08T07:09:36.148Z,98082.91
2024-02-08T07:12:22.247Z,98083.75
2024-02-08T07:15:08.255Z,98095.84
2024-02-08T07:17:54.272Z,98093.22
2024-02-08T07:20:40.351Z,98096.63
2024-02-08T07:23:26.004Z,98095.66
2024-02-08T07:26:11.886Z,98100.91
2024-02-08T07:28:57.637Z,98098.22
2024-02-08T07:31:43.574Z,98108.50
2024-02-08T07:34:29.702Z,98101.75
2024-02-08T07:37:19.257Z,98112.09
2024-02-08T07:39:56.120Z,98106.78
2024-02-08T07:42:43.254Z,98114.56
2024-02-08T07:45:14.330Z,98116.13
2024-02-08T07:47:46.548Z,98109.28
2024-02-08T07:50:13.780Z,98102.41
2024-02-08T07:52:47.368Z,98104.97
2024-02-08T07:55:16.369Z,98107.66
2024-02-08T07:57:54.492Z,98096.41
2024-02-08T08:00:43.581Z,98096.37
2024-02-08T08:03:17.061Z,98097.06
2024-02-08T08:05:45.871Z,98112.75
2024-02-08T08:08:32.111Z,98096.25
2024-02-08T08:11:16.886Z,98098.84
2024-02-08T08:13:56.437Z,98097.09
2024-02-08T08:16:30.002Z,98103.16
2024-02-08T08:18:58.765Z,98091.91
2024-02-08T08:21:28.887Z,98099.75
2024-02-08T08:24:03.259Z,98094.50
2024-02-08T08:26:45.541Z,98092.72
2024-02-08T08:29:18.503Z,98089.16
2024-02-08T08:31:55.421Z,98106.72
2024-02-08T08:34:26.073Z,98102.44
2024-02-08T08:37:04.362Z,98102.28
2024-02-08T08:39:51.117Z,98103.75
2024-02-08T08:42:19.165Z,98103.75
2024-02-08T08:45:01.114Z,98097.00
2024-02-08T08:47:29.573Z,98101.22
2024-02-08T08:49:57.185Z,98103.69
2024-02-08T08:52:27.491Z,98096.56
2024-02-08T08:55:12.463Z,98096.56
2024-02-08T08:57:40.012Z,98095.69
2024-02-08T09:00:10.825Z,98098.09
2024-02-08T09:02:41.684Z,98097.88
2024-02-08T09:05:18.706Z,98091.50
2024-02-08T09:07:46.550Z,98093.03
2024-02-08T09:10:17.482Z,98095.37
2024-02-08T09:13:01.500Z,98093.63
2024-02-08T09:15:29.656Z,98092.12
2024-02-08T09:18:10.077Z,98102.69
2024-02-08T09:20:39.245Z,98092.06
2024-02-08T09:23:14.392Z,98091.38
2024-02-08T09:25:48.482Z,98088.53
2024-02-08T09:28:26.494Z,98101.41
2024-02-08T09:30:55.268Z,98104.63
2024-02-08T09:33:32.210Z,98100.66
2024-02-08T09:36:03.142Z,98104.97
2024-02-08T09:38:44.127Z,98095.22
2024-02-08T09:41:25.096Z,98093.97
2024-02-08T09:43:59.545Z,98102.56
2024-02-08T09:46:35.037Z,98099.72
2024-02-08T09:49:03.508Z,98098.16
2024-02-08T09:51:36.434Z,98098.13
2024-02-08T09:54:29.880Z,98090.06
2024-02-08T09:57:02.424Z,98086.25
2024-02-08T09:59:48.098Z,98084.78
2024-02-08T10:02:26.271Z,98086.47
2024-02-08T10:04:58.420Z,98078.09
2024-02-08T10:07:38.060Z,98085.09
2024-02-08T10:10:17.111Z,98087.87
2024-02-08T10:13:06.841Z,98088.25
2024-02-08T10:15:40.686Z,98100.25
2024-02-08T10:18:24.421Z,98087.69
2024-02-08T10:20:57.410Z,98084.84
2024-02-08T10:23:37.383Z,98087.56
2024-02-08T10:26:24.126Z,98086.69
2024-02-08T10:28:55.923Z,98089.94
2024-02-08T10:31:26.866Z,98070.00
2024-02-08T10:34:24.641Z,98067.38
2024-02-08T10:36:54.963Z,98066.19
2024-02-08T10:39:26.021Z,98059.31
2024-02-08T10:42:00.789Z,98040.53
2024-02-08T10:44:30.617Z,98043.69
2024-02-08T10:47:08.236Z,98042.56
2024-02-08T10:49:53.074Z,98039.56
2024-02-08T10:52:22.507Z,98035.37
2024-02-08T10:54:53.998Z,98038.66
2024-02-08T10:57:41.047Z,98034.41
2024-02-08T11:00:27.608Z,98025.59
2024-02-08T11:03:09.155Z,98023.12
2024-02-08T11:05:49.914Z,98021.53
2024-02-08T11:08:26.250Z,98031.38
2024-02-08T11:10:55.732Z,98028.66
2024-02-08T11:13:30.545Z,98014.44
2024-02-08T11:16:06.100Z,98019.87
2024-02-08T11:18:34.720Z,98014.78
2024-02-08T11:21:05.770Z,98017.38
2024-02-08T11:23:34.106Z,98004.91
2024-02-08T11:26:08.954Z,98016.19
2024-02-08T11:28:49.544Z,98009.63
2024-02-08T11:31:18.176Z,98016.12
2024-02-08T11:33:45.932Z,98011.53
2024-02-08T11:36:15.010Z,98004.69
2024-02-08T11:38:59.146Z,98003.47
2024-02-08T11:41:27.621Z,97989.81
2024-02-08T11:44:05.161Z,97991.72
2024-02-08T11:46:44.669Z,97986.31
2024-02-08T11:49:33.243Z,97995.53
2024-02-08T11:52:08.146Z,97992.66
2024-02-08T11:54:39.221Z,97997.78
2024-02-08T11:57:11.070Z,98001.09
2024-02-08T11:59:40.604Z,97992.03
2024-02-08T12:02:11.311Z,97991.09
2024-02-08T12:04:38.967Z,97991.50
2024-02-08T12:07:09.182Z,97977.66
2024-02-08T12:09:36.682Z,97977.69
2024-02-08T12:12:05.097Z,97974.50
2024-02-08T12:14:32.809Z,97975.56
2024-02-08T12:16:59.982Z,97970.44
2024-02-08T12:19:31.427Z,97980.78
2024-02-08T12:22:04.931Z,97967.44
2024-02-08T12:24:34.111Z,97975.78
2024-02-08T12:27:12.820Z,97973.63
2024-02-08T12:29:47.161Z,97975.94
2024-02-08T12:32:20.500Z,97971.22
2024-02-08T12:34:51.346Z,97953.91
2024-02-08T12:37:18.947Z,97958.09
2024-02-08T12:39:46.752Z,97959.25
2024-02-08T12:42:15.654Z,97965.59
2024-02-08T12:44:49.209Z,97965.56
2024-02-08T13:02:26.684Z,97965.06
2024-02-08T13:04:55.462Z,97972.00
2024-02-08T13:07:26.844Z,97970.22
2024-02-08T13:10:24.509Z,97971.13
2024-02-08T13:13:11.293Z,97955.34
2024-02-08T13:15:42.944Z,97954.38
2024-02-08T13:18:14.647Z,97956.91
2024-02-08T13:20:44.620Z,97948.88
2024-02-08T13:23:12.584Z,97939.91
2024-02-08T13:25:41.217Z,97941.06
2024-02-08T13:28:11.656Z,97937.34
2024-02-08T13:30:41.502Z,97941.41
2024-02-08T13:33:12.462Z,97943.81
2024-02-08T13:35:43.855Z,97948.16
2024-02-08T13:38:12.551Z,97944.81
2024-02-08T13:40:48.761Z,97943.47
2024-02-08T13:43:18.036Z,97940.03
2024-02-08T13:45:45.612Z,97936.50
2024-02-08T13:48:18.985Z,97932.19
2024-02-08T13:50:47.910Z,97936.28
2024-02-08T13:53:16.324Z,97937.03
2024-02-08T13:58:19.829Z,97930.31
2024-02-08T14:00:47.960Z,97944.19
2024-02-08T14:03:24.236Z,97940.34
2024-02-08T14:05:53.738Z,97929.66
2024-02-08T14:08:25.547Z,97934.87
2024-02-08T14:10:55.270Z,97924.12
2024-02-08T14:13:36.897Z,97922.44
2024-02-08T14:16:16.366Z,97923.38
2024-02-08T14:18:54.128Z,97922.84
2024-02-08T14:21:26.629Z,97929.44
2024-02-08T14:24:01.372Z,97925.66
2024-02-08T14:26:39.047Z,97927.87
2024-02-08T14:29:08.841Z,97932.75
2024-02-08T14:31:40.858Z,97933.03
2024-02-08T14:34:11.395Z,97923.28
2024-02-08T14:36:48.237Z,97910.91
2024-02-08T14:39:34.934Z,97908.28
2024-02-08T14:42:12.751Z,97920.25
2024-02-08T14:44:55.103Z,97921.81
2024-02-08T14:47:27.043Z,97914.50
2024-02-08T14:50:00.254Z,97912.22
2024-02-08T14:52:30.662Z,97895.72
2024-02-08T14:55:10.573Z,97896.28
2024-02-08T14:57:46.431Z,97894.88
2024-02-08T15:00:40.595Z,97897.19
2024-02-08T15:03:11.887Z,97894.16
2024-02-08T15:05:49.872Z,97884.28
2024-02-08T15:08:24.089Z,97901.00
2024-02-08T15:11:04.037Z,97905.22
2024-02-08T15:13:39.549Z,97902.34
2024-02-08T15:16:09.278Z,97890.69
2024-02-08T15:18:40.700Z,97888.31
2024-02-08T15:21:09.453Z,97875.69
2024-02-08T15:23:50.057Z,97876.19
2024-02-08T15:26:25.888Z,97869.63
2024-02-08T15:28:58.953Z,97870.31
2024-02-08T15:31:45.409Z,97861.06
2024-02-08T15:34:18.714Z,97865.00
2024-02-08T15:36:51.935Z,97855.88
2024-02-08T15:39:48.337Z,97860.06
2024-02-08T15:42:19.908Z,97859.81
2024-02-08T15:44:53.399Z,97862.31
2024-02-08T15:47:21.769Z,97861.78
2024-02-08T15:49:59.507Z,97855.53
2024-02-08T15:52:30.766Z,97845.19
2024-02-08T15:55:00.036Z,97840.81
2024-02-08T15:57:31.443Z,97848.91
2024-02-08T16:00:01.306Z,97850.28
2024-02-08T16:02:29.012Z,97850.41
2024-02-08T16:05:13.489Z,97845.41
2024-02-08T16:07:44.099Z,97843.72
2024-02-08T16:10:23.423Z,97839.59
2024-02-08T16:13:05.831Z,97845.75
2024-02-08T16:15:52.652Z,97846.09
2024-02-08T16:18:27.488Z,97855.34
2024-02-08T16:20:56.306Z,97864.50
2024-02-08T16:23:45.199Z,97849.41
2024-02-08T16:26:14.124Z,97853.91
2024-02-08T16:28:51.129Z,97858.50
2024-02-08T16:31:19.655Z,97854.31
2024-02-08T16:33:47.252Z,97845.47
2024-02-08T16:36:31.253Z,97849.91
2024-02-08T16:39:08.881Z,97844.81
2024-02-08T16:41:48.716Z,97846.31
2024-02-08T16:44:16.601Z,97835.34
2024-02-08T16:46:53.204Z,97842.34
2024-02-08T16:49:21.038Z,97841.41
2024-02-08T16:51:52.034Z,97837.94
2024-02-08T16:54:30.376Z,97822.97
2024-02-08T16:56:58.306Z,97813.78
2024-02-08T16:59:36.707Z,97813.63
2024-02-08T17:02:13.513Z,97809.59
2024-02-08T17:04:41.867Z,97801.81
2024-02-08T17:07:12.548Z,97805.34
2024-02-08T17:09:48.291Z,97805.75
2024-02-08T17:12:24.383Z,97809.16
2024-02-08T17:14:55.091Z,97810.00
2024-02-08T17:17:36.570Z,97817.66
2024-02-08T17:20:06.665Z,97816.69
2024-02-08T17:23:05.952Z,97827.25
2024-02-08T17:25:56.428Z,97825.44
2024-02-08T17:28:33.714Z,97823.81
2024-02-08T17:31:06.557Z,97825.31
2024-02-08T17:33:40.709Z,97833.19
2024-02-08T17:36:12.393Z,97835.03
2024-02-08T17:38:43.778Z,97834.97
2024-02-08T17:41:20.035Z,97837.63
2024-02-08T17:43:51.682Z,97839.31
2024-02-08T17:46:21.579Z,97841.91
2024-02-08T17:48:51.972Z,97841.19
2024-02-08T17:51:32.810Z,97842.97
2024-02-08T17:54:02.021Z,97836.31
2024-02-08T17:56:33.091Z,97836.06
2024-02-08T18:01:54.896Z,97833.88
2024-02-08T18:04:26.309Z,97838.34
2024-02-08T18:07:00.348Z,97837.53
2024-02-08T18:09:31.218Z,97838.34
2024-02-08T18:12:14.135Z,97833.12
2024-02-08T18:14:42.399Z,97842.69
2024-02-08T18:17:16.004Z,97835.47
2024-02-08T18:19:47.117Z,97843.47
2024-02-08T18:22:15.814Z,97843.47
2024-02-08T18:24:49.233Z,97830.41
2024-02-08T18:27:23.656Z,97833.91
2024-02-08T18:29:52.490Z,97826.81
2024-02-08T18:32:20.348Z,97821.25
2024-02-08T18:34:51.103Z,97818.84
2024-02-08T18:37:27.841Z,97817.47
2024-02-08T18:39:55.614Z,97812.87
2024-02-08T18:42:23.702Z,97802.62
2024-02-08T18:44:51.159Z,97800.44
2024-02-08T18:47:22.393Z,97790.37
2024-02-08T18:49:50.559Z,97795.53
2024-02-08T18:52:19.477Z,97782.84
2024-02-08T18:54:48.199Z,97771.12
2024-02-08T18:57:17.483Z,97763.22
2024-02-08T18:59:51.900Z,97778.78
2024-02-08T19:02:37.158Z,97778.03
2024-02-08T19:05:07.556Z,97779.03
2024-02-08T19:07:35.318Z,97774.03
2024-02-08T19:10:08.096Z,97779.72
2024-02-08T19:12:38.292Z,97777.84
2024-02-08T19:15:07.862Z,97778.75
2024-02-08T19:17:43.053Z,97772.53
2024-02-08T19:20:19.860Z,97780.47
2024-02-08T19:22:49.101Z,97774.50
2024-02-08T19:25:20.426Z,97772.09
2024-02-08T19:27:48.674Z,97766.81
2024-02-08T19:30:15.964Z,97761.53
2024-02-08T19:32:44.498Z,97763.19
2024-02-08T19:35:12.203Z,97764.31
2024-02-08T19:37:39.828Z,97759.25
2024-02-08T19:40:10.008Z,97752.34
2024-02-08T19:42:38.282Z,97755.97
2024-02-08T19:45:16.822Z,97744.72
2024-02-08T19:47:45.535Z,97737.91
2024-02-08T19:50:18.690Z,97744.87
2024-02-08T19:52:48.876Z,97738.03
2024-02-08T19:55:22.587Z,97733.78
2024-02-08T19:57:54.213Z,97726.81
2024-02-08T20:00:23.444Z,97738.94
2024-02-08T20:02:53.663Z,97742.63
2024-02-08T20:05:23.875Z,97741.75
2024-02-08T20:07:52.378Z,97750.63
2024-02-08T20:10:24.247Z,97738.50
2024-02-08T20:12:55.256Z,97744.81
2024-02-08T20:15:28.831Z,97746.44
2024-02-08T20:17:56.534Z,97764.62
2024-02-08T20:20:24.150Z,97758.47
2024-02-08T20:22:54.964Z,97755.06
2024-02-08T20:25:27.202Z,97754.06
2024-02-08T20:27:56.662Z,97746.09
2024-02-08T20:30:26.119Z,97750.44
2024-02-08T20:32:53.845Z,97741.78
2024-02-08T20:35:22.246Z,97745.94
2024-02-08T20:37:52.703Z,97755.97
2024-02-08T20:40:23.360Z,97754.88
2024-02-08T20:42:54.885Z,97747.84
2024-02-08T20:45:23.506Z,97744.44
2024-02-08T20:47:53.584Z,97740.94
2024-02-08T20:50:22.042Z,97750.47
2024-02-08T20:52:50.676Z,97758.34
2024-02-08T20:55:25.274Z,97765.34
2024-02-08T20:57:54.297Z,97766.00
2024-02-08T21:00:23.785Z,97778.97
2024-02-08T21:02:54.263Z,97774.78
2024-02-08T21:05:24.055Z,97781.47
2024-02-08T21:07:51.293Z,97785.16
2024-02-08T21:10:26.759Z,97772.72
2024-02-08T21:12:54.440Z,97783.87
2024-02-08T21:15:24.315Z,97786.66
2024-02-08T21:17:51.922Z,97786.09
2024-02-08T21:20:19.716Z,97786.16
2024-02-08T21:22:50.194Z,97797.34
2024-02-08T21:25:19.953Z,97799.88
2024-02-08T21:27:53.586Z,97790.28
2024-02-08T21:30:21.900Z,97787.78
2024-02-08T21:32:50.155Z,97785.94
2024-02-08T21:35:18.333Z,97781.75
2024-02-08T21:37:47.036Z,97780.94
2024-02-08T21:40:15.109Z,97783.50
2024-02-08T21:42:42.357Z,97779.31
2024-02-08T21:45:13.742Z,97775.00
2024-02-08T21:47:41.642Z,97780.88
2024-02-08T21:50:10.018Z,97772.09
2024-02-08T21:52:38.284Z,97760.97
2024-02-08T21:55:08.276Z,97764.53
2024-02-08T21:57:36.093Z,97768.78
2024-02-08T22:00:12.465Z,97767.03
2024-02-08T22:02:44.561Z,97755.44
2024-02-08T22:05:12.757Z,97765.34
2024-02-08T22:07:41.918Z,97766.84
2024-02-08T22:10:13.592Z,97767.19
2024-02-08T22:12:46.497Z,97768.87
2024-02-08T22:15:15.095Z,97765.41
2024-02-08T22:17:42.805Z,97777.31
2024-02-08T22:20:13.532Z,97781.59
2024-02-08T22:22:42.038Z,97772.66
2024-02-08T22:25:11.390Z,97778.84
2024-02-08T22:27:41.652Z,97776.28
2024-02-08T22:30:12.052Z,97760.78
2024-02-08T22:32:43.022Z,97756.34
2024-02-08T22:35:12.061Z,97746.06
2024-02-08T22:37:40.160Z,97747.81
2024-02-08T22:40:09.037Z,97747.91
2024-02-08T22:42:40.409Z,97743.88
2024-02-08T22:45:10.365Z,97731.72
2024-02-08T22:47:38.721Z,97729.31
2024-02-08T22:50:12.654Z,97730.25
2024-02-08T22:52:47.586Z,97716.72
2024-02-08T22:55:16.680Z,97712.88
2024-02-08T22:57:45.677Z,97723.41
2024-02-08T23:00:25.722Z,97720.75
2024-02-08T23:03:08.742Z,97714.72
2024-02-08T23:05:41.525Z,97708.84
2024-02-08T23:08:13.130Z,97713.22
2024-02-08T23:10:40.683Z,97708.06
2024-02-08T23:13:14.682Z,97709.88
2024-02-08T23:15:47.550Z,97714.97
2024-02-08T23:18:16.269Z,97718.69
2024-02-08T23:20:44.933Z,97711.72
2024-02-08T23:23:12.509Z,97716.88
2024-02-08T23:25:40.948Z,97715.03
2024-02-08T23:28:10.438Z,97714.31
2024-02-08T23:30:45.809Z,97713.19
2024-02-08T23:33:18.319Z,97720.00
2024-02-08T23:35:46.833Z,97714.22
2024-02-08T23:38:20.113Z,97712.47
2024-02-08T23:40:49.229Z,97715.03
2024-02-08T23:43:17.286Z,97716.94
2024-02-08T23:45:46.184Z,97717.97
2024-02-08T23:48:15.049Z,97714.41
2024-02-08T23:50:43.935Z,97710.03
2024-02-08T23:53:11.342Z,97712.88
2024-02-08T23:55:39.559Z,97709.34
2024-02-08T23:58:12.122Z,97703.12
